Portada
METAR-TAF:

METAR-TAF

Aeroports :

Marathon, Florida, Estats Units d'Amèrica

latitud: 24-43-33N, longitud: 081-02-52W, altitud: 2 m

Observació

L'informe es va fer fa 43 minuts, a les 22:53 UTC
Vent calma
Temperatura 26°C
Humitat 61%
Pressió 1014 hPa
Visibilitat: 16.1 km
Cel clar

METAR: KMTH 152253Z AUTO 00000KT 10SM CLR 26/18 A2994 RMK AO2 SLP139 T02610183

Hora: 19:36 (23:36 UTC)

Pronòstic

L'informe es va fer fa 5 hores i 20 minuts, a les 18:16 UTC
Pronòstic vàlid del 15 a les 18 UTC al 16 a les 18 UTC
Vent 7 kt del Sud/Sud-Est
Visibilitat: 10 km
Núvols disperses a una alçada de 2500 ft
A partir de les 15 a les 2100 UTC
Vent 5 kt del Sud/Sud-Est
Visibilitat: 10 km
Núvols disperses a una alçada de 2500 ft
A partir de les 16 a les 1100 UTC
Vent 5 kt del Sud/Sud-Oest
Visibilitat: 10 km
Núvols disperses a una alçada de 2500 ft

TAF: KMTH 151816Z 1518/1618 15007KT P6SM SCT025 FM152100 16005KT P6SM SCT025 FM161100 20005KT P6SM SCT025

Observacions i pronòstics meteorològics de més de 4000 aeroports (METAR i TAF).

Les estacions disponibles són els punts grocs i vermells al mapa.

Posi el ratolí al punt desitjat per veure el nom de l'estació.

Feu clic per veure les observacions i els pronòstics meteorològics.

Per canviar el mapa: feu clic els botons verds amb una creu de color negre per apropar; al botó verd amb un guió per allunyar la imatge; o en les fletxes verdes per a mapes adjacents.


METAR-TAF: